Hope, North Dakota
Current Conditions -  °F | °C
As of 8:15 PM on Saturday 20 Dec 2014 (Local Time) from KBAC Reporting Station
Haze Haze  
Wind Chill: 17°   Ceiling: 300
Heat Index: 28°   Visibility: 4mi
Dew Point: 28°   Wind: 14mph
Humidity: 100%   Direction: 190°S
Pressure: 29.86"   Gusts: NA
Location:  47.32°N, 97.72°W
Report Text: KBAC 210215Z AUTO 19012KT 4SM BR OVC003 M02/M02 A2986 RMK AO2
Loading
Personal Weather Stations






























Interactive Weather Map New forecast layout! Learn more

10-Day Weather Forecast

Advertisements
Track Severe Weather on mobile